Time;durP1;ratioP1;P1;durP2;ratioP2;P2;SDS_P1;SDS_P2;PMS_P1;PMS_P2;Temp;Humidity;BMP_temperature;BMP_pressure;BME280_temperature;BME280_humidity;BME280_pressure;Samples;Min_cycle;Max_cycle;Signal;HPM_P1;HPM_P2
2022/04/13 00:02:02;;;;;;;7.20;5.78;;;13.50;99.90;;;;;;5092734;28;20047;-74
2022/04/13 00:04:28;;;;;;;8.88;5.32;;;13.40;99.90;;;;;;5092384;28;20090;-74
2022/04/13 00:06:54;;;;;;;9.10;5.72;;;13.50;99.90;;;;;;5092846;28;20513;-73
2022/04/13 00:09:19;;;;;;;9.95;5.70;;;13.40;99.90;;;;;;5075893;28;20124;-74
2022/04/13 00:11:45;;;;;;;8.35;5.43;;;13.40;99.90;;;;;;5058772;28;20494;-72
2022/04/13 00:14:11;;;;;;;10.65;6.15;;;13.30;99.90;;;;;;5075378;28;20039;-74
2022/04/13 00:16:37;;;;;;;7.47;5.80;;;13.40;99.90;;;;;;5058835;28;20068;-74
2022/04/13 00:19:03;;;;;;;13.13;6.15;;;13.40;99.90;;;;;;5075036;28;20052;-74
2022/04/13 00:21:29;;;;;;;9.43;5.65;;;13.40;99.90;;;;;;5091988;28;20113;-74
2022/04/13 00:23:56;;;;;;;8.88;5.15;;;13.50;99.90;;;;;;5075134;28;20039;-73
2022/04/13 00:26:24;;;;;;;7.45;4.90;;;13.40;99.90;;;;;;5075204;28;20036;-73
2022/04/13 00:28:49;;;;;;;11.40;5.40;;;13.40;99.90;;;;;;5091744;28;20040;-74
2022/04/13 00:31:15;;;;;;;8.82;5.85;;;13.40;99.90;;;;;;5091855;28;20047;-73
2022/04/13 00:33:41;;;;;;;9.98;5.70;;;13.20;99.90;;;;;;5091759;28;20052;-74
2022/04/13 00:36:06;;;;;;;8.07;6.00;;;13.20;99.90;;;;;;5092012;28;20094;-74
2022/04/13 00:38:32;;;;;;;8.35;6.20;;;13.20;99.90;;;;;;5074672;28;20088;-74
2022/04/13 00:40:58;;;;;;;12.02;6.30;;;13.20;99.90;;;;;;5091561;28;20399;-74
2022/04/13 00:43:24;;;;;;;8.20;5.68;;;13.20;99.90;;;;;;5058168;28;20058;-73
2022/04/13 00:45:51;;;;;;;7.50;5.43;;;13.20;99.90;;;;;;5091429;28;20036;-74
2022/04/13 00:48:28;;;;;;;9.35;5.60;;;13.10;99.90;;;;;;5091391;28;20384;-74
2022/04/13 00:50:53;;;;;;;10.75;6.07;;;13.20;99.90;;;;;;5091454;28;20124;-74
2022/04/13 00:53:21;;;;;;;9.32;6.00;;;13.10;99.90;;;;;;5057959;28;20130;-74
2022/04/13 00:55:49;;;;;;;9.90;6.07;;;13.40;99.90;;;;;;5091588;28;20039;-74
2022/04/13 00:58:19;;;;;;;10.00;5.97;;;13.10;99.90;;;;;;5091253;28;20383;-74
2022/04/13 01:00:49;;;;;;;11.65;6.40;;;13.10;99.90;;;;;;5091520;28;20044;-74
2022/04/13 01:03:21;;;;;;;9.50;5.95;;;13.10;99.90;;;;;;5091636;28;20048;-74
2022/04/13 01:05:49;;;;;;;8.55;6.13;;;13.20;99.90;;;;;;5091180;28;20044;-74
2022/04/13 01:08:17;;;;;;;8.48;5.90;;;13.00;99.90;;;;;;5057665;28;20050;-74
2022/04/13 01:10:44;;;;;;;10.15;6.20;;;13.00;99.90;;;;;;5091314;28;20364;-74
2022/04/13 01:13:11;;;;;;;8.63;6.35;;;12.90;99.90;;;;;;5091267;28;20046;-73
2022/04/13 01:15:37;;;;;;;8.90;6.72;;;12.90;99.90;;;;;;5091247;28;20514;-74
2022/04/13 01:18:04;;;;;;;13.60;7.00;;;13.30;99.90;;;;;;5090884;28;20040;-74
2022/04/13 01:20:29;;;;;;;11.73;6.72;;;12.80;99.90;;;;;;5090813;28;20450;-73
2022/04/13 01:22:56;;;;;;;11.25;7.20;;;12.90;99.90;;;;;;5057845;28;20048;-74
2022/04/13 01:25:22;;;;;;;12.93;7.30;;;13.00;99.90;;;;;;5090823;28;20040;-74
2022/04/13 01:27:47;;;;;;;15.68;8.23;;;13.30;99.90;;;;;;5074388;28;20051;-73
2022/04/13 01:30:14;;;;;;;10.48;7.55;;;13.00;99.90;;;;;;5074033;28;20039;-74
2022/04/13 01:32:40;;;;;;;9.25;6.95;;;12.90;99.90;;;;;;5090714;28;20097;-73
2022/04/13 01:35:07;;;;;;;11.20;7.20;;;13.00;99.90;;;;;;5090776;28;20449;-73
2022/04/13 01:37:34;;;;;;;8.80;7.13;;;12.90;99.90;;;;;;5090795;28;20069;-73
2022/04/13 01:40:00;;;;;;;10.75;6.80;;;12.80;99.90;;;;;;5090716;28;20051;-73
2022/04/13 01:42:26;;;;;;;10.05;7.45;;;13.10;99.90;;;;;;5090987;28;20082;-73
2022/04/13 01:44:51;;;;;;;11.27;7.38;;;12.90;99.90;;;;;;5073961;28;20071;-73
2022/04/13 01:47:17;;;;;;;10.55;7.25;;;12.90;99.90;;;;;;5090883;28;20492;-73
2022/04/13 01:49:43;;;;;;;7.63;6.80;;;12.90;99.90;;;;;;5090576;28;20044;-73
2022/04/13 01:52:10;;;;;;;10.23;7.18;;;13.00;99.90;;;;;;5073628;28;20044;-73
2022/04/13 01:54:36;;;;;;;9.50;6.78;;;12.80;99.90;;;;;;5090476;28;20059;-73
2022/04/13 01:57:03;;;;;;;10.50;7.82;;;12.80;99.90;;;;;;5073814;28;20044;-73
2022/04/13 01:59:29;;;;;;;12.23;7.68;;;13.40;99.90;;;;;;5090409;28;20115;-72
2022/04/13 02:01:55;;;;;;;10.35;7.57;;;12.70;99.90;;;;;;5090441;28;20099;-73
2022/04/13 02:04:23;;;;;;;10.32;7.68;;;12.80;99.90;;;;;;5090476;28;20125;-73
2022/04/13 02:06:49;;;;;;;10.48;7.50;;;13.00;99.90;;;;;;5073867;28;20048;-73
2022/04/13 02:09:16;;;;;;;12.82;7.68;;;12.80;99.90;;;;;;5073546;28;20099;-73
2022/04/13 02:11:43;;;;;;;11.13;7.90;;;12.60;99.90;;;;;;5057283;28;20062;-73
2022/04/13 02:14:09;;;;;;;9.00;7.15;;;12.70;99.90;;;;;;5090256;28;20089;-73
2022/04/13 02:16:36;;;;;;;15.00;8.55;;;13.20;99.90;;;;;;5073498;28;20889;-73
2022/04/13 02:19:02;;;;;;;11.57;8.60;;;12.70;99.90;;;;;;5090135;28;20113;-73
2022/04/13 02:21:28;;;;;;;11.45;8.23;;;12.80;99.90;;;;;;5073512;28;20046;-73
2022/04/13 02:23:54;;;;;;;11.18;8.60;;;12.60;99.90;;;;;;5090271;28;20122;-72
2022/04/13 02:26:20;;;;;;;11.57;7.57;;;12.60;99.90;;;;;;5073361;28;20535;-73
2022/04/13 02:28:46;;;;;;;15.55;8.30;;;12.90;99.90;;;;;;5090315;28;20560;-72
2022/04/13 02:31:12;;;;;;;11.32;8.15;;;12.50;99.90;;;;;;5073478;28;20058;-73
2022/04/13 02:33:39;;;;;;;12.82;8.68;;;12.50;99.90;;;;;;5073273;28;20107;-73
2022/04/13 02:36:05;;;;;;;12.77;8.82;;;12.50;99.90;;;;;;5073775;28;20399;-72
2022/04/13 02:38:31;;;;;;;10.75;8.85;;;12.50;99.90;;;;;;5090000;28;20044;-72
2022/04/13 02:40:57;;;;;;;16.63;9.40;;;12.50;99.90;;;;;;5073298;28;20036;-73
2022/04/13 02:43:24;;;;;;;14.15;9.13;;;12.40;99.90;;;;;;5056591;28;20169;-72
2022/04/13 02:45:50;;;;;;;17.05;9.35;;;12.50;99.90;;;;;;5090136;28;20071;-73
2022/04/13 02:48:16;;;;;;;14.10;9.20;;;12.50;99.90;;;;;;5090112;28;20044;-73
2022/04/13 02:50:42;;;;;;;13.27;9.40;;;12.60;99.90;;;;;;5090314;28;20056;-73
2022/04/13 02:53:07;;;;;;;13.73;9.02;;;12.60;99.90;;;;;;5074995;28;20088;-73
2022/04/13 02:55:33;;;;;;;12.82;9.40;;;12.60;99.90;;;;;;5076843;28;20044;-73
2022/04/13 02:57:59;;;;;;;14.10;9.32;;;12.80;99.90;;;;;;5076692;28;20538;-73
2022/04/13 03:00:25;;;;;;;13.77;9.40;;;12.50;99.90;;;;;;5059974;28;20395;-73
2022/04/13 03:02:50;;;;;;;11.60;8.07;;;12.50;99.90;;;;;;5076605;28;20514;-73
2022/04/13 03:05:16;;;;;;;17.08;9.77;;;12.50;99.90;;;;;;5076569;28;20459;-73
2022/04/13 03:07:42;;;;;;;14.07;10.20;;;12.40;99.90;;;;;;5093672;28;20048;-73
2022/04/13 03:10:08;;;;;;;15.73;10.13;;;12.80;99.90;;;;;;5093368;28;20074;-72
2022/04/13 03:12:35;;;;;;;20.30;11.13;;;12.30;99.90;;;;;;5093364;28;20044;-72
2022/04/13 03:15:03;;;;;;;13.00;9.43;;;12.20;99.90;;;;;;5059757;28;20048;-72
2022/04/13 03:17:29;;;;;;;17.20;10.18;;;12.10;99.90;;;;;;5093190;28;20080;-73
2022/04/13 03:19:54;;;;;;;15.30;10.45;;;12.10;99.90;;;;;;5059556;28;20094;-73
2022/04/13 03:22:27;;;;;;;14.32;9.95;;;12.10;99.90;;;;;;5093100;28;20063;-73
2022/04/13 03:24:53;;;;;;;14.73;10.57;;;12.10;99.90;;;;;;5093027;28;20040;-73
2022/04/13 03:27:19;;;;;;;16.17;10.48;;;12.10;99.90;;;;;;5093097;28;20123;-73
2022/04/13 03:29:45;;;;;;;17.42;10.95;;;12.10;99.90;;;;;;5093037;28;20044;-73
2022/04/13 03:32:11;;;;;;;17.98;10.98;;;12.20;99.90;;;;;;5076146;28;20076;-73
2022/04/13 03:34:36;;;;;;;17.38;10.52;;;12.20;99.90;;;;;;5093156;28;20047;-73
2022/04/13 03:37:03;;;;;;;16.08;10.57;;;12.20;99.90;;;;;;5093004;28;20044;-73
2022/04/13 03:39:29;;;;;;;16.23;10.07;;;12.30;99.90;;;;;;5059776;28;20043;-74
2022/04/13 03:41:55;;;;;;;15.75;10.88;;;12.50;99.90;;;;;;5092746;28;20077;-73
2022/04/13 03:44:20;;;;;;;16.77;10.32;;;12.30;99.90;;;;;;5076168;28;20402;-73
2022/04/13 03:46:46;;;;;;;17.77;10.82;;;12.30;99.90;;;;;;5075914;28;20586;-72
2022/04/13 03:49:12;;;;;;;18.48;11.38;;;12.40;99.90;;;;;;5059030;28;20097;-72
2022/04/13 03:51:38;;;;;;;14.88;9.93;;;12.40;99.90;;;;;;5076034;28;20036;-73
2022/04/13 03:54:04;;;;;;;21.25;11.05;;;12.40;99.90;;;;;;5075657;28;20059;-73
2022/04/13 03:56:30;;;;;;;16.77;10.90;;;12.40;99.90;;;;;;5092427;28;20043;-73
2022/04/13 03:59:07;;;;;;;15.82;9.88;;;12.40;99.90;;;;;;5092400;28;20470;-73
2022/04/13 04:01:33;;;;;;;17.58;11.23;;;12.50;99.90;;;;;;5092605;28;20103;-73
2022/04/13 04:03:59;;;;;;;16.85;10.95;;;12.40;99.90;;;;;;5075347;28;20465;-72
2022/04/13 04:06:25;;;;;;;18.95;11.13;;;12.40;99.90;;;;;;5058700;28;20075;-73
2022/04/13 04:08:51;;;;;;;17.75;11.63;;;12.50;99.90;;;;;;5075365;28;20097;-73
2022/04/13 04:11:17;;;;;;;20.67;13.55;;;12.50;99.90;;;;;;5092289;28;20040;-73
2022/04/13 04:13:42;;;;;;;19.02;12.68;;;12.40;99.90;;;;;;5058677;28;20036;-73
2022/04/13 04:16:08;;;;;;;18.17;12.60;;;12.40;99.90;;;;;;5058655;28;20054;-73
2022/04/13 04:18:34;;;;;;;18.90;12.65;;;12.40;99.90;;;;;;5091798;28;20463;-72
2022/04/13 04:21:00;;;;;;;20.17;12.93;;;12.40;99.90;;;;;;5092361;28;20044;-72
2022/04/13 04:23:26;;;;;;;18.77;12.73;;;12.40;99.90;;;;;;5058421;28;20040;-73
2022/04/13 04:25:52;;;;;;;19.10;13.57;;;12.40;99.90;;;;;;5074979;28;20036;-73
2022/04/13 04:28:17;;;;;;;17.63;12.48;;;12.40;99.90;;;;;;5091775;28;20399;-73
2022/04/13 04:30:43;;;;;;;21.00;13.35;;;12.40;99.90;;;;;;5092057;28;20082;-72
2022/04/13 04:33:12;;;;;;;20.63;12.50;;;12.40;99.90;;;;;;5091973;28;20043;-73
2022/04/13 04:35:41;;;;;;;18.52;12.63;;;12.30;99.90;;;;;;5075009;28;20484;-72
2022/04/13 04:38:07;;;;;;;18.77;12.38;;;12.30;99.90;;;;;;5091929;28;20036;-73
2022/04/13 04:40:33;;;;;;;20.95;13.35;;;12.30;99.90;;;;;;5074609;28;20047;-72
2022/04/13 04:42:58;;;;;;;16.55;12.07;;;12.30;99.90;;;;;;5091538;28;20084;-72
2022/04/13 04:45:24;;;;;;;20.45;12.57;;;12.20;99.90;;;;;;5091408;28;20075;-72
2022/04/13 04:47:52;;;;;;;21.23;12.55;;;12.20;99.90;;;;;;5074935;28;20039;-72
2022/04/13 04:50:19;;;;;;;20.20;13.05;;;12.10;99.90;;;;;;5074787;28;20391;-74
2022/04/13 04:52:46;;;;;;;18.55;12.98;;;12.10;99.90;;;;;;5091338;28;20123;-75
2022/04/13 04:55:13;;;;;;;18.95;13.32;;;12.10;99.90;;;;;;5058355;28;20571;-75
2022/04/13 04:57:40;;;;;;;16.52;11.82;;;12.00;99.90;;;;;;5091487;28;20118;-75
2022/04/13 05:00:09;;;;;;;21.77;13.55;;;12.00;99.90;;;;;;5091573;28;20549;-75
2022/04/13 05:02:37;;;;;;;19.00;12.80;;;11.90;99.90;;;;;;5091381;28;20545;-75
2022/04/13 05:05:07;;;;;;;19.02;14.15;;;11.90;99.90;;;;;;5091570;28;20122;-75
2022/04/13 05:07:33;;;;;;;19.35;12.40;;;11.90;99.90;;;;;;5074388;28;20047;-75
2022/04/13 05:09:59;;;;;;;19.58;13.57;;;12.00;99.90;;;;;;5091344;28;20044;-76
2022/04/13 05:12:25;;;;;;;19.50;12.43;;;11.90;99.90;;;;;;5091300;28;20044;-76
2022/04/13 05:14:54;;;;;;;21.17;12.75;;;12.10;99.90;;;;;;5090966;28;20540;-75
2022/04/13 05:17:23;;;;;;;19.80;12.23;;;11.90;99.90;;;;;;5090773;28;20041;-76
2022/04/13 05:19:49;;;;;;;24.25;13.60;;;12.00;99.90;;;;;;5091271;28;20080;-76
2022/04/13 05:22:16;;;;;;;23.92;12.05;;;11.90;99.90;;;;;;5091364;28;20475;-76
2022/04/13 05:24:42;;;;;;;20.70;12.38;;;12.00;99.90;;;;;;5074123;28;20036;-76
2022/04/13 05:27:08;;;;;;;19.98;12.48;;;12.00;99.90;;;;;;5074145;28;20075;-75
2022/04/13 05:29:34;;;;;;;20.05;14.15;;;12.00;99.90;;;;;;5090876;28;20076;-72
2022/04/13 05:32:00;;;;;;;20.50;12.55;;;12.00;99.90;;;;;;5090974;28;20399;-72
2022/04/13 05:34:26;;;;;;;18.25;11.57;;;12.00;99.90;;;;;;5090775;28;20055;-72
2022/04/13 05:36:51;;;;;;;21.40;12.38;;;12.00;99.90;;;;;;5073871;28;20043;-71
2022/04/13 05:39:17;;;;;;;18.33;11.98;;;12.10;99.90;;;;;;5090738;28;20050;-71
2022/04/13 05:41:42;;;;;;;19.02;11.93;;;12.10;99.90;;;;;;5074165;28;20040;-71
2022/04/13 05:44:08;;;;;;;22.17;12.68;;;12.30;99.90;;;;;;5057487;28;20040;-73
2022/04/13 05:46:34;;;;;;;22.30;12.50;;;12.20;99.90;;;;;;5057128;28;20462;-73
2022/04/13 05:49:01;;;;;;;19.45;12.35;;;12.20;99.90;;;;;;5073719;28;20040;-72
2022/04/13 05:51:26;;;;;;;18.42;12.40;;;12.30;99.90;;;;;;5090968;28;20051;-71
2022/04/13 05:53:52;;;;;;;18.08;12.05;;;12.20;99.90;;;;;;5073803;28;20050;-74
2022/04/13 05:56:18;;;;;;;18.25;12.23;;;12.20;99.90;;;;;;5073827;28;20173;-74
2022/04/13 05:58:43;;;;;;;19.23;12.75;;;12.20;99.90;;;;;;5090570;28;20133;-74
2022/04/13 06:01:09;;;;;;;20.65;12.45;;;12.20;99.90;;;;;;5073619;28;20040;-74
2022/04/13 06:03:35;;;;;;;20.75;12.55;;;12.20;99.90;;;;;;5090555;28;20040;-77
2022/04/13 06:06:01;;;;;;;20.05;13.60;;;12.30;99.90;;;;;;5090939;28;20479;-75
2022/04/13 06:08:26;;;;;;;22.55;15.02;;;12.20;99.90;;;;;;5073730;28;20036;-75
2022/04/13 06:10:52;;;;;;;20.10;12.68;;;12.20;99.90;;;;;;5090444;28;20457;-77
2022/04/13 06:13:18;;;;;;;19.52;13.43;;;12.20;99.90;;;;;;5073849;28;20043;-75
2022/04/13 06:15:44;;;;;;;24.92;14.32;;;12.20;99.90;;;;;;5073677;28;20044;-73
2022/04/13 06:18:11;;;;;;;23.75;13.95;;;12.20;99.90;;;;;;5090669;28;20048;-73
2022/04/13 06:20:36;;;;;;;22.88;14.32;;;12.30;99.90;;;;;;5056870;28;20084;-73
2022/04/13 06:23:02;;;;;;;25.30;13.45;;;12.30;99.90;;;;;;5090616;28;20094;-72
2022/04/13 06:25:28;;;;;;;21.52;12.82;;;12.30;99.90;;;;;;5090037;28;20063;-73
2022/04/13 06:27:53;;;;;;;22.73;14.55;;;12.50;99.90;;;;;;5076779;28;20039;-73
2022/04/13 06:30:19;;;;;;;19.88;14.52;;;12.50;99.90;;;;;;5094001;28;20193;-73
2022/04/13 06:32:46;;;;;;;23.13;14.88;;;12.60;99.90;;;;;;5094070;28;20047;-73
2022/04/13 06:35:14;;;;;;;21.75;14.40;;;12.70;99.90;;;;;;5077094;28;20044;-73
2022/04/13 06:37:43;;;;;;;20.67;14.07;;;12.90;99.90;;;;;;5093625;28;20048;-73
2022/04/13 06:40:09;;;;;;;27.25;14.80;;;12.90;99.90;;;;;;5094270;28;20143;-73
2022/04/13 06:42:39;;;;;;;19.92;14.57;;;13.00;99.90;;;;;;5093916;28;20043;-77
2022/04/13 06:45:10;;;;;;;22.80;14.15;;;13.20;99.90;;;;;;5077363;28;20044;-75
2022/04/13 06:47:36;;;;;;;;;;;13.30;99.90;;;;;;5061437;28;20044;-76
2022/04/13 06:50:02;;;;;;;25.23;15.10;;;13.50;99.90;;;;;;5094110;28;19916;-77
2022/04/13 06:52:32;;;;;;;22.73;14.55;;;13.60;99.90;;;;;;5094202;28;20479;-77
2022/04/13 06:54:58;;;;;;;20.75;14.43;;;13.80;99.90;;;;;;5094030;28;20048;-77
2022/04/13 06:57:24;;;;;;;20.48;13.27;;;13.90;99.90;;;;;;5093846;28;20072;-79
2022/04/13 06:59:49;;;;;;;19.80;13.98;;;14.00;99.90;;;;;;5076855;28;20032;-76
2022/04/13 07:02:15;;;;;;;18.13;12.70;;;14.10;99.90;;;;;;5093334;28;20106;-74
2022/04/13 07:04:41;;;;;;;19.48;13.35;;;14.20;99.90;;;;;;5093317;28;20036;-74
2022/04/13 07:07:07;;;;;;;21.08;13.02;;;14.20;99.90;;;;;;5076510;28;20040;-74
2022/04/13 07:09:33;;;;;;;19.65;13.50;;;14.20;99.90;;;;;;5093637;28;20036;-74
2022/04/13 07:11:59;;;;;;;18.35;12.68;;;14.20;99.90;;;;;;5076293;28;20118;-74
2022/04/13 07:14:25;;;;;;;19.65;13.88;;;14.10;99.90;;;;;;5076449;28;20455;-74
2022/04/13 07:16:51;;;;;;;19.33;13.15;;;14.10;99.90;;;;;;5093578;28;20044;-74
2022/04/13 07:19:16;;;;;;;21.00;13.07;;;14.10;99.90;;;;;;5092800;28;20051;-74
2022/04/13 07:21:42;;;;;;;25.05;13.60;;;14.10;99.90;;;;;;5076645;28;20032;-74
2022/04/13 07:24:08;;;;;;;20.83;12.65;;;14.20;99.90;;;;;;5093310;28;20032;-74
2022/04/13 07:26:34;;;;;;;17.50;11.75;;;14.40;99.90;;;;;;5076258;28;20117;-75
2022/04/13 07:28:59;;;;;;;20.70;13.02;;;14.50;99.90;;;;;;5076648;28;20133;-74
2022/04/13 07:31:25;;;;;;;20.08;11.93;;;14.60;99.90;;;;;;5076559;28;20047;-74
2022/04/13 07:33:51;;;;;;;17.50;11.18;;;14.80;99.90;;;;;;5093062;28;20048;-73
2022/04/13 07:36:17;;;;;;;15.43;11.18;;;14.80;99.90;;;;;;5092985;28;20047;-74
2022/04/13 07:38:42;;;;;;;17.90;12.45;;;14.90;99.90;;;;;;5092036;28;20398;-73
2022/04/13 07:41:08;;;;;;;17.23;10.85;;;15.00;99.90;;;;;;5075945;28;20059;-74
2022/04/13 07:43:34;;;;;;;17.77;11.07;;;15.00;99.90;;;;;;5093038;28;20057;-74
2022/04/13 07:45:59;;;;;;;20.38;12.02;;;15.20;99.90;;;;;;5092745;28;20047;-73
2022/04/13 07:48:25;;;;;;;17.65;11.98;;;15.30;99.90;;;;;;5076147;28;20097;-75
2022/04/13 07:50:51;;;;;;;14.43;10.82;;;15.40;99.90;;;;;;5076024;28;20050;-76
2022/04/13 07:53:17;;;;;;;17.15;11.15;;;15.40;99.90;;;;;;5092680;28;20062;-74
2022/04/13 07:55:42;;;;;;;17.38;11.63;;;15.50;99.90;;;;;;5075718;28;20044;-75
2022/04/13 07:58:08;;;;;;;18.90;10.48;;;15.50;99.90;;;;;;5075509;28;20105;-75
2022/04/13 08:00:34;;;;;;;17.35;10.52;;;15.30;99.90;;;;;;5075556;28;20047;-74
2022/04/13 08:03:00;;;;;;;21.13;10.35;;;15.20;99.90;;;;;;5075899;28;20126;-74
2022/04/13 08:05:26;;;;;;;15.60;10.70;;;15.30;99.90;;;;;;5075831;28;20044;-74
2022/04/13 08:07:52;;;;;;;14.20;9.82;;;15.20;99.90;;;;;;5092299;28;20132;-73
2022/04/13 08:10:17;;;;;;;16.67;10.20;;;15.30;99.90;;;;;;5092166;28;20079;-74
2022/04/13 08:12:46;;;;;;;16.30;10.43;;;15.30;99.90;;;;;;5075548;28;20460;-76
2022/04/13 08:15:13;;;;;;;16.67;10.75;;;15.20;99.90;;;;;;5092153;28;20158;-75
2022/04/13 08:17:40;;;;;;;15.55;9.80;;;15.30;99.90;;;;;;5092482;28;20051;-74
2022/04/13 08:20:08;;;;;;;17.50;11.15;;;15.30;99.90;;;;;;5075640;28;20481;-75
2022/04/13 08:22:33;;;;;;;14.10;10.45;;;15.40;99.90;;;;;;5092541;28;20557;-75
2022/04/13 08:24:59;;;;;;;18.52;11.63;;;15.20;99.90;;;;;;5075699;28;20031;-74
2022/04/13 08:27:25;;;;;;;18.88;9.85;;;15.30;99.90;;;;;;5075544;28;20086;-75
2022/04/13 08:29:50;;;;;;;15.25;8.32;;;15.40;99.90;;;;;;5075439;28;20044;-75
2022/04/13 08:32:17;;;;;;;13.88;8.27;;;15.30;99.90;;;;;;5075346;28;20100;-74
2022/04/13 08:34:44;;;;;;;14.38;8.48;;;15.40;99.90;;;;;;5092014;28;20119;-75
2022/04/13 08:37:10;;;;;;;12.57;8.38;;;15.40;99.90;;;;;;5075084;28;20055;-74
2022/04/13 08:39:36;;;;;;;13.27;8.25;;;15.50;99.90;;;;;;5091728;28;20177;-73
2022/04/13 08:42:10;;;;;;;15.02;9.15;;;15.50;99.90;;;;;;5074789;28;20047;-74
2022/04/13 08:44:51;;;;;;;11.60;8.13;;;15.50;99.90;;;;;;5091852;28;20047;-74
2022/04/13 08:47:18;;;;;;;15.82;8.75;;;15.60;99.90;;;;;;5091752;28;20040;-74
2022/04/13 08:49:45;;;;;;;12.40;7.93;;;15.50;99.90;;;;;;5091413;28;20044;-74
2022/04/13 08:52:14;;;;;;;15.85;8.82;;;15.50;99.90;;;;;;5074810;28;20052;-74
2022/04/13 08:54:47;;;;;;;15.45;9.18;;;15.70;99.90;;;;;;5057932;28;20036;-74
2022/04/13 08:57:14;;;;;;;12.93;8.38;;;15.80;99.90;;;;;;5074391;28;20089;-73
2022/04/13 09:00:02;;;;;;;14.80;8.70;;;16.00;99.90;;;;;;5074723;28;20123;-74
2022/04/13 09:02:37;;;;;;;10.93;7.88;;;16.20;99.90;;;;;;5091656;28;20395;-73
2022/04/13 09:05:12;;;;;;;12.93;7.55;;;16.30;99.90;;;;;;5074986;28;20050;-74
2022/04/13 09:07:38;;;;;;;11.02;6.80;;;16.50;99.90;;;;;;5091256;28;20054;-74
2022/04/13 09:10:10;;;;;;;12.65;7.65;;;16.50;99.90;;;;;;5074605;28;20146;-74
2022/04/13 09:12:36;;;;;;;12.30;7.20;;;16.40;99.90;;;;;;5075141;28;20058;-74
2022/04/13 09:15:04;;;;;;;10.88;6.65;;;16.40;99.90;;;;;;5074680;28;20435;-73
2022/04/13 09:17:30;;;;;;;10.73;6.50;;;16.60;99.90;;;;;;5090983;28;20044;-74
2022/04/13 09:19:58;;;;;;;10.48;5.90;;;16.50;99.90;;;;;;5091129;28;20850;-74
2022/04/13 09:22:24;;;;;;;11.90;6.03;;;16.70;99.90;;;;;;5074188;28;20052;-74
2022/04/13 09:24:51;;;;;;;10.38;6.32;;;16.80;99.90;;;;;;5074156;28;20381;-74
2022/04/13 09:27:20;;;;;;;9.07;5.18;;;16.90;99.90;;;;;;5090955;28;20415;-74
2022/04/13 09:29:47;;;;;;;9.27;5.05;;;17.00;99.90;;;;;;5074249;28;20075;-74
2022/04/13 09:32:13;;;;;;;8.25;4.93;;;16.90;99.90;;;;;;5074065;28;20117;-74
2022/04/13 09:34:39;;;;;;;10.90;5.03;;;16.90;99.90;;;;;;5090850;28;20074;-74
2022/04/13 09:37:06;;;;;;;9.27;5.45;;;17.10;99.90;;;;;;5073933;28;20079;-73
2022/04/13 09:39:33;;;;;;;8.15;5.10;;;17.20;99.90;;;;;;5090724;28;20074;-74
2022/04/13 09:42:03;;;;;;;9.68;4.93;;;17.20;99.90;;;;;;5090909;28;20036;-74
2022/04/13 09:44:30;;;;;;;9.85;5.10;;;;;;;;;;5090943;28;20040;-74
2022/04/13 09:47:10;;;;;;;9.68;5.38;;;17.50;99.90;;;;;;5090897;28;20050;-74
2022/04/13 09:49:45;;;;;;;12.23;5.13;;;17.50;99.90;;;;;;5073755;28;20036;-73
2022/04/13 09:52:11;;;;;;;9.30;5.60;;;17.40;99.90;;;;;;5090508;28;20040;-73
2022/04/13 09:54:44;;;;;;;11.55;5.68;;;17.40;99.90;;;;;;5073982;28;20109;-73
2022/04/13 09:57:23;;;;;;;8.93;5.65;;;17.40;99.90;;;;;;5073958;28;20814;-74
2022/04/13 10:00:15;;;;;;;8.15;4.30;;;17.40;99.90;;;;;;5073704;28;20051;-75
2022/04/13 10:02:42;;;;;;;8.00;4.70;;;17.60;99.90;;;;;;5074490;28;20075;-73
2022/04/13 10:05:19;;;;;;;10.20;4.95;;;17.80;99.90;;;;;;5078083;28;20044;-76
2022/04/13 10:07:55;;;;;;;9.13;4.55;;;17.80;99.90;;;;;;5094549;28;20079;-74
2022/04/13 10:10:25;;;;;;;7.70;4.07;;;17.90;99.90;;;;;;5094871;28;20494;-74
2022/04/13 10:12:51;;;;;;;8.18;4.43;;;17.90;99.90;;;;;;5077703;28;20097;-74
2022/04/13 10:15:17;;;;;;;8.25;4.75;;;18.00;99.90;;;;;;5078054;28;20048;-73
2022/04/13 10:17:42;;;;;;;6.15;4.05;;;18.10;99.90;;;;;;5060965;28;20055;-74
2022/04/13 10:20:09;;;;;;;7.55;4.45;;;18.20;99.90;;;;;;5060905;28;20411;-74
2022/04/13 10:22:58;;;;;;;11.40;4.13;;;18.30;99.90;;;;;;5077788;28;20497;-75
2022/04/13 10:25:26;;;;;;;9.43;4.38;;;18.40;99.90;;;;;;5077541;28;20044;-74
2022/04/13 10:27:57;;;;;;;6.75;3.78;;;18.50;99.90;;;;;;5094567;28;20101;-73
2022/04/13 10:30:28;;;;;;;9.32;4.43;;;18.60;99.90;;;;;;5094051;28;20085;-73
2022/04/13 10:33:02;;;;;;;5.38;3.75;;;18.80;99.90;;;;;;5077449;28;20048;-74
2022/04/13 10:35:29;;;;;;;8.35;4.60;;;18.90;99.90;;;;;;5094213;28;20063;-75
2022/04/13 10:37:55;;;;;;;8.65;4.93;;;19.00;99.90;;;;;;5077239;28;20109;-75
2022/04/13 10:40:28;;;;;;;8.82;5.13;;;18.90;99.90;;;;;;5077453;28;20036;-74
2022/04/13 10:42:59;;;;;;;7.50;3.85;;;19.00;99.90;;;;;;5077470;28;20140;-74
2022/04/13 10:45:26;;;;;;;;;;;18.90;99.90;;;;;;5094605;28;20522;-74
2022/04/13 10:48:02;;;;;;;7.25;4.13;;;19.00;99.90;;;;;;5093772;28;19916;-75
2022/04/13 10:50:40;;;;;;;8.75;3.92;;;19.00;99.90;;;;;;5093766;28;20044;-75
2022/04/13 10:53:14;;;;;;;7.72;3.83;;;19.10;99.90;;;;;;5093853;28;20067;-74
2022/04/13 10:55:42;;;;;;;6.65;3.67;;;19.20;99.90;;;;;;5076914;28;20068;-75
2022/04/13 10:58:29;;;;;;;6.70;3.38;;;19.30;99.90;;;;;;5076925;28;20123;-75
2022/04/13 11:01:04;;;;;;;6.38;4.00;;;19.30;99.90;;;;;;5093677;28;20079;-76
2022/04/13 11:03:34;;;;;;;6.90;3.97;;;19.30;99.90;;;;;;5093545;28;20051;-76
2022/04/13 11:06:02;;;;;;;9.93;3.93;;;19.20;99.90;;;;;;5093473;28;20055;-76
2022/04/13 11:09:02;;;;;;;6.40;4.03;;;19.30;99.90;;;;;;5093510;28;20289;-76
2022/04/13 11:11:31;;;;;;;6.40;4.00;;;19.30;99.90;;;;;;5093706;28;20044;-77
2022/04/13 11:13:57;;;;;;;5.45;3.53;;;19.30;99.90;;;;;;5092294;28;20047;-77
2022/04/13 11:16:25;;;;;;;7.40;3.42;;;19.30;99.90;;;;;;5093726;28;20176;-76
2022/04/13 11:19:06;;;;;;;9.10;4.15;;;19.40;99.90;;;;;;5076278;28;20575;-75
2022/04/13 11:21:55;;;;;;;9.32;4.00;;;19.40;99.90;;;;;;5093485;28;20377;-76
2022/04/13 11:24:47;;;;;;;6.75;3.92;;;19.30;99.90;;;;;;5087536;28;20096;-75
2022/04/13 11:27:13;;;;;;;8.57;5.20;;;19.20;99.90;;;;;;5091488;28;20059;-74
2022/04/13 11:29:40;;;;;;;8.23;4.93;;;19.10;99.90;;;;;;5093319;28;20368;-75
2022/04/13 11:32:09;;;;;;;7.72;4.47;;;19.10;99.90;;;;;;5076315;28;20411;-74
2022/04/13 11:34:44;;;;;;;7.60;4.03;;;19.10;99.90;;;;;;5093172;28;20048;-74
2022/04/13 11:37:19;;;;;;;9.35;4.90;;;19.20;99.90;;;;;;5076365;28;20121;-75
2022/04/13 11:39:51;;;;;;;5.60;3.55;;;19.10;99.90;;;;;;5093319;28;20395;-75
2022/04/13 11:42:38;;;;;;;8.07;3.72;;;19.10;99.90;;;;;;5093246;28;20047;-75
2022/04/13 11:45:07;;;;;;;7.50;3.85;;;19.00;99.90;;;;;;5076174;28;20054;-75
2022/04/13 11:47:40;;;;;;;7.07;3.70;;;18.90;99.90;;;;;;5093020;28;20490;-75
2022/04/13 11:50:15;;;;;;;8.20;3.20;;;18.90;99.90;;;;;;5093426;28;20055;-75
2022/04/13 11:52:49;;;;;;;7.43;2.80;;;18.90;99.90;;;;;;5075988;28;20511;-75
2022/04/13 11:55:35;;;;;;;4.20;2.03;;;18.90;99.90;;;;;;5076079;28;20130;-75
2022/04/13 11:58:20;;;;;;;3.80;2.17;;;19.00;99.90;;;;;;5092551;28;20044;-75
2022/04/13 12:00:57;;;;;;;7.28;2.22;;;19.00;99.90;;;;;;5092475;28;20055;-75
2022/04/13 12:03:25;;;;;;;6.03;2.33;;;18.90;99.90;;;;;;5092706;28;20372;-75
2022/04/13 12:05:55;;;;;;;5.35;2.45;;;18.80;99.90;;;;;;5075712;28;20399;-75
2022/04/13 12:08:30;;;;;;;3.42;2.03;;;18.80;99.90;;;;;;5092642;28;20509;-75
2022/04/13 12:11:13;;;;;;;5.93;2.45;;;18.70;99.90;;;;;;5075934;28;20479;-75
2022/04/13 12:13:52;;;;;;;5.20;2.47;;;18.70;99.90;;;;;;5092366;28;20049;-75
2022/04/13 12:16:28;;;;;;;7.93;3.05;;;18.90;99.90;;;;;;5092429;28;20518;-75
2022/04/13 12:18:59;;;;;;;7.47;2.70;;;19.00;99.90;;;;;;5075358;28;20032;-75
2022/04/13 12:21:26;;;;;;;9.23;3.22;;;19.20;99.90;;;;;;5091865;28;20121;-76
2022/04/13 12:23:53;;;;;;;8.45;3.10;;;19.30;99.90;;;;;;5092023;28;20093;-73
2022/04/13 12:26:44;;;;;;;7.50;3.00;;;19.20;99.90;;;;;;5091897;28;20043;-74
2022/04/13 12:29:15;;;;;;;6.32;3.10;;;19.10;99.90;;;;;;5075652;28;20574;-75
2022/04/13 12:31:54;;;;;;;9.55;3.55;;;19.00;99.90;;;;;;5092096;28;20056;-79
2022/04/13 12:34:22;;;;;;;7.38;4.00;;;18.90;99.90;;;;;;5074787;28;20127;-77
2022/04/13 12:36:55;;;;;;;6.95;3.42;;;18.90;99.90;;;;;;5091780;28;20047;-77
2022/04/13 12:39:32;;;;;;;11.05;4.40;;;18.80;99.90;;;;;;5091732;28;20042;-78
2022/04/13 12:41:59;;;;;;;8.40;4.30;;;18.60;99.90;;;;;;5092010;28;20487;-79